createdAt,value
2022-12-03T00:00:58.758Z,6.10
2022-12-03T00:01:50.500Z,6.70
2022-12-03T00:02:41.910Z,6.40
2022-12-03T00:03:35.999Z,5.60
2022-12-03T00:04:27.497Z,7.20
2022-12-03T00:05:18.761Z,6.00
2022-12-03T00:06:09.959Z,5.70
2022-12-03T00:07:01.369Z,4.80
2022-12-03T00:07:52.933Z,6.00
2022-12-03T00:08:44.173Z,6.90
2022-12-03T00:09:35.354Z,5.20
2022-12-03T00:10:26.984Z,5.80
2022-12-03T00:11:18.387Z,5.40
2022-12-03T00:12:09.658Z,7.30
2022-12-03T00:13:01.224Z,5.60
2022-12-03T00:13:52.650Z,5.50
2022-12-03T00:14:45.000Z,5.80
2022-12-03T00:15:36.490Z,5.80
2022-12-03T00:16:27.892Z,6.60
2022-12-03T00:17:19.237Z,5.90
2022-12-03T00:18:10.852Z,5.90
2022-12-03T00:19:02.209Z,6.30
2022-12-03T00:19:54.028Z,6.30
2022-12-03T00:20:45.579Z,6.10
2022-12-03T00:21:37.218Z,7.00
2022-12-03T00:22:28.251Z,5.70
2022-12-03T00:23:19.865Z,6.20
2022-12-03T00:24:11.596Z,6.50
2022-12-03T00:25:03.677Z,6.70
2022-12-03T00:25:55.038Z,6.50
2022-12-03T00:26:46.541Z,6.30
2022-12-03T00:27:37.943Z,5.70
2022-12-03T00:29:21.015Z,6.10
2022-12-03T00:30:13.353Z,6.40
2022-12-03T00:31:06.221Z,5.40
2022-12-03T00:31:57.806Z,6.90
2022-12-03T00:33:40.600Z,6.30
2022-12-03T00:34:32.232Z,6.60
2022-12-03T00:35:23.922Z,6.50
2022-12-03T00:36:15.176Z,7.00
2022-12-03T00:37:06.642Z,7.70
2022-12-03T00:37:58.916Z,5.60
2022-12-03T00:38:50.320Z,5.60
2022-12-03T00:39:41.852Z,8.00
2022-12-03T00:40:33.636Z,7.10
2022-12-03T00:41:24.836Z,7.30
2022-12-03T00:42:16.229Z,6.20
2022-12-03T00:43:07.812Z,6.60
2022-12-03T00:43:59.317Z,7.70
2022-12-03T00:44:51.187Z,6.00
2022-12-03T00:45:42.764Z,6.50
2022-12-03T00:46:34.302Z,6.30
2022-12-03T00:47:25.661Z,8.10
2022-12-03T00:48:17.414Z,6.20
2022-12-03T00:49:08.719Z,6.50
2022-12-03T00:50:00.248Z,5.90
2022-12-03T00:50:51.728Z,5.60
2022-12-03T00:51:43.245Z,6.40
2022-12-03T00:52:34.529Z,6.40
2022-12-03T00:53:25.814Z,6.40
2022-12-03T00:54:17.064Z,5.90
2022-12-03T00:55:08.798Z,6.70
2022-12-03T00:56:01.703Z,6.70
2022-12-03T00:56:53.226Z,5.70
2022-12-03T00:57:44.829Z,6.90
2022-12-03T00:58:36.411Z,6.90
2022-12-03T00:59:27.972Z,7.40
2022-12-03T01:00:24.554Z,8.10
2022-12-03T01:01:15.916Z,6.70
2022-12-03T01:02:07.484Z,7.70
2022-12-03T01:02:58.870Z,6.00
2022-12-03T01:03:50.353Z,7.90
2022-12-03T01:04:42.058Z,7.60
2022-12-03T01:05:33.566Z,7.60
2022-12-03T01:06:24.764Z,8.10
2022-12-03T01:07:16.072Z,8.30
2022-12-03T01:08:07.480Z,7.60
2022-12-03T01:08:58.911Z,7.30
2022-12-03T01:09:50.309Z,7.40
2022-12-03T01:11:39.246Z,6.70
2022-12-03T01:12:31.040Z,8.60
2022-12-03T01:13:22.632Z,7.60
2022-12-03T01:14:15.809Z,9.30
2022-12-03T01:15:07.792Z,7.90
2022-12-03T01:15:59.273Z,7.30
2022-12-03T01:16:50.719Z,7.00
2022-12-03T01:17:42.220Z,7.60
2022-12-03T01:18:33.738Z,8.30
2022-12-03T01:19:25.614Z,7.70
2022-12-03T01:20:17.012Z,7.70
2022-12-03T01:21:08.330Z,8.70
2022-12-03T01:21:59.908Z,7.80
2022-12-03T01:22:51.284Z,7.90
2022-12-03T01:23:42.718Z,8.80
2022-12-03T01:24:34.316Z,9.20
2022-12-03T01:25:25.933Z,7.60
2022-12-03T01:26:17.371Z,8.00
2022-12-03T01:27:08.737Z,9.90
2022-12-03T01:28:00.292Z,8.90
2022-12-03T01:28:52.352Z,6.70
2022-12-03T01:29:43.925Z,8.00
2022-12-03T01:30:55.221Z,8.10
2022-12-03T01:32:05.612Z,7.60
2022-12-03T01:32:57.014Z,6.20
2022-12-03T01:33:48.567Z,8.00
2022-12-03T01:34:39.967Z,8.20
2022-12-03T01:35:31.157Z,8.00
2022-12-03T01:36:22.789Z,8.60
2022-12-03T01:38:05.922Z,7.70
2022-12-03T01:38:57.596Z,7.40
2022-12-03T01:39:49.677Z,7.00
2022-12-03T01:40:41.360Z,8.00
2022-12-03T01:41:33.490Z,8.30
2022-12-03T01:42:39.753Z,7.60
2022-12-03T01:43:31.362Z,8.80
2022-12-03T01:44:24.295Z,8.70
2022-12-03T01:45:21.431Z,8.90
2022-12-03T01:46:21.091Z,8.30
2022-12-03T01:47:16.991Z,8.20
2022-12-03T01:48:10.198Z,6.60
2022-12-03T01:49:01.455Z,7.10
2022-12-03T01:49:54.189Z,6.80
2022-12-03T01:50:45.937Z,7.40
2022-12-03T01:51:37.490Z,8.20
2022-12-03T01:52:31.037Z,8.60
2022-12-03T01:53:22.726Z,7.50
2022-12-03T01:54:17.043Z,13.60
2022-12-03T01:55:13.248Z,7.20
2022-12-03T01:56:04.526Z,7.80
2022-12-03T01:56:56.023Z,8.20
2022-12-03T01:57:49.786Z,7.70
2022-12-03T01:58:41.984Z,7.10
2022-12-03T01:59:35.635Z,7.20
2022-12-03T02:00:27.865Z,6.50
2022-12-03T02:01:19.674Z,6.90
2022-12-03T02:02:12.818Z,7.20
2022-12-03T02:03:11.513Z,7.60
2022-12-03T02:04:03.082Z,6.90
2022-12-03T02:04:55.138Z,6.40
2022-12-03T02:05:47.018Z,6.50
2022-12-03T02:06:38.783Z,7.10
2022-12-03T02:07:31.524Z,6.40
2022-12-03T02:08:33.668Z,7.20
2022-12-03T02:09:25.198Z,6.10
2022-12-03T02:10:18.870Z,6.40
2022-12-03T02:11:21.321Z,7.60
2022-12-03T02:12:13.358Z,6.60
2022-12-03T02:13:06.408Z,5.70
2022-12-03T02:14:01.284Z,6.00
2022-12-03T02:14:53.663Z,6.10
2022-12-03T02:15:45.748Z,5.60
2022-12-03T02:16:37.802Z,6.40
2022-12-03T02:17:29.244Z,7.10
2022-12-03T02:18:20.776Z,6.30
2022-12-03T02:20:05.195Z,7.60
2022-12-03T02:20:59.391Z,5.30
2022-12-03T02:21:59.944Z,7.60
2022-12-03T02:22:54.325Z,6.80
2022-12-03T02:24:00.507Z,5.80
2022-12-03T02:24:57.230Z,6.40
2022-12-03T02:25:48.804Z,6.80
2022-12-03T02:26:40.258Z,6.80
2022-12-03T02:27:31.858Z,6.20
2022-12-03T02:28:23.458Z,6.80
2022-12-03T02:29:14.758Z,7.10
2022-12-03T02:30:07.573Z,6.00
2022-12-03T02:30:59.187Z,7.90
2022-12-03T02:31:50.462Z,7.10
2022-12-03T02:32:43.128Z,6.20
2022-12-03T02:33:34.919Z,7.30
2022-12-03T02:34:37.148Z,7.50
2022-12-03T02:35:30.365Z,5.30
2022-12-03T02:36:22.181Z,6.20
2022-12-03T02:37:15.478Z,7.10
2022-12-03T02:38:21.428Z,7.40
2022-12-03T02:39:12.823Z,6.10
2022-12-03T02:40:06.662Z,7.80
2022-12-03T02:41:01.249Z,6.20
2022-12-03T02:42:11.396Z,6.30
2022-12-03T02:43:03.302Z,6.20
2022-12-03T02:43:54.989Z,5.90
2022-12-03T02:44:46.692Z,7.40
2022-12-03T02:45:41.233Z,6.40
2022-12-03T02:46:33.489Z,6.70
2022-12-03T02:47:25.018Z,6.60
2022-12-03T02:48:19.048Z,5.70
2022-12-03T02:49:10.869Z,6.50
2022-12-03T02:50:55.805Z,5.20
2022-12-03T02:51:47.222Z,5.90
2022-12-03T02:52:38.983Z,6.60
2022-12-03T02:53:36.390Z,5.80
2022-12-03T02:54:27.754Z,6.30
2022-12-03T02:55:19.371Z,7.20
2022-12-03T02:56:13.542Z,6.50
2022-12-03T02:57:05.681Z,6.10
2022-12-03T02:57:57.159Z,6.40
2022-12-03T02:58:49.556Z,7.60
2022-12-03T02:59:40.846Z,8.30
2022-12-03T03:00:33.019Z,7.40
2022-12-03T03:01:24.526Z,6.10
2022-12-03T03:02:15.796Z,6.90
2022-12-03T03:03:59.289Z,5.40
2022-12-03T03:04:50.867Z,6.20
2022-12-03T03:05:42.649Z,6.10
2022-12-03T03:06:34.573Z,7.20
2022-12-03T03:07:27.039Z,6.20
2022-12-03T03:08:18.765Z,8.20
2022-12-03T03:10:02.234Z,5.20
2022-12-03T03:10:54.088Z,6.20
2022-12-03T03:11:45.993Z,6.10
2022-12-03T03:12:39.391Z,6.50
2022-12-03T03:13:32.309Z,6.40
2022-12-03T03:14:23.966Z,6.10
2022-12-03T03:15:15.925Z,6.80
2022-12-03T03:16:08.046Z,7.50
2022-12-03T03:16:59.574Z,6.10
2022-12-03T03:17:51.597Z,6.00
2022-12-03T03:18:43.248Z,6.10
2022-12-03T03:20:26.488Z,6.90
2022-12-03T03:21:18.957Z,5.90
2022-12-03T03:22:11.460Z,6.00
2022-12-03T03:23:11.787Z,5.80
2022-12-03T03:24:04.174Z,5.30
2022-12-03T03:24:55.728Z,6.10
2022-12-03T03:25:49.426Z,5.90
2022-12-03T03:26:41.478Z,5.90
2022-12-03T03:27:33.890Z,6.80
2022-12-03T03:28:26.684Z,6.40
2022-12-03T03:29:18.219Z,5.70
2022-12-03T03:30:09.819Z,6.00
2022-12-03T03:31:02.607Z,6.10
2022-12-03T03:31:55.015Z,6.70
2022-12-03T03:32:46.370Z,6.00
2022-12-03T03:33:39.316Z,7.00
2022-12-03T03:34:32.553Z,7.00
2022-12-03T03:35:24.388Z,5.20
2022-12-03T03:37:06.989Z,5.70
2022-12-03T03:37:58.824Z,5.40
2022-12-03T03:38:50.613Z,4.60
2022-12-03T03:39:41.837Z,5.10
2022-12-03T03:40:33.087Z,5.20
2022-12-03T03:41:25.654Z,4.40
2022-12-03T03:42:17.057Z,4.90
2022-12-03T03:43:08.612Z,5.50
2022-12-03T03:44:00.221Z,6.10
2022-12-03T03:44:52.327Z,5.30
2022-12-03T03:45:44.498Z,3.60
2022-12-03T03:46:37.254Z,5.90
2022-12-03T03:47:28.907Z,4.90
2022-12-03T03:48:20.296Z,5.10
2022-12-03T03:49:12.005Z,4.20
2022-12-03T03:50:04.103Z,4.20
2022-12-03T03:52:38.557Z,4.90
2022-12-03T03:53:30.418Z,4.30
2022-12-03T03:54:23.040Z,4.90
2022-12-03T03:55:14.602Z,4.20
2022-12-03T03:56:06.483Z,5.30
2022-12-03T03:56:58.026Z,6.70
2022-12-03T03:57:49.599Z,4.80
2022-12-03T03:58:40.878Z,5.40
2022-12-03T03:59:32.428Z,5.80
2022-12-03T04:00:23.808Z,5.60
2022-12-03T04:01:15.412Z,6.00
2022-12-03T04:02:06.863Z,5.80
2022-12-03T04:02:58.157Z,6.00
2022-12-03T04:03:49.578Z,6.50
2022-12-03T04:04:41.192Z,6.10
2022-12-03T04:05:32.258Z,5.30
2022-12-03T04:06:23.534Z,5.40
2022-12-03T04:07:15.844Z,5.20
2022-12-03T04:08:07.468Z,4.80
2022-12-03T04:08:58.923Z,5.10
2022-12-03T04:09:50.310Z,5.40
2022-12-03T04:11:00.564Z,5.00
2022-12-03T04:12:10.522Z,5.10
2022-12-03T04:13:02.005Z,6.10
2022-12-03T04:14:44.943Z,4.30
2022-12-03T04:15:36.652Z,5.10
2022-12-03T04:16:28.342Z,5.00
2022-12-03T04:17:19.647Z,5.30
2022-12-03T04:18:29.607Z,5.80
2022-12-03T04:19:21.159Z,5.40
2022-12-03T04:20:12.776Z,5.90
2022-12-03T04:21:22.709Z,5.00
2022-12-03T04:22:32.678Z,5.00
2022-12-03T04:23:30.628Z,4.60
2022-12-03T04:24:22.389Z,6.30
2022-12-03T04:25:32.734Z,5.20
2022-12-03T04:26:43.131Z,5.10
2022-12-03T04:27:53.339Z,5.80
2022-12-03T04:28:51.024Z,5.30
2022-12-03T04:29:42.620Z,5.60
2022-12-03T04:30:34.009Z,5.20
2022-12-03T04:31:44.019Z,4.90
2022-12-03T04:32:54.158Z,4.60
2022-12-03T04:34:04.746Z,5.30
2022-12-03T04:35:15.390Z,5.20
2022-12-03T04:36:06.840Z,4.80
2022-12-03T04:36:58.280Z,5.30
2022-12-03T04:37:49.513Z,6.00
2022-12-03T04:38:40.718Z,4.60
2022-12-03T04:39:32.292Z,6.00
2022-12-03T04:40:42.287Z,4.70
2022-12-03T04:41:33.574Z,4.60
2022-12-03T04:42:24.866Z,4.20
2022-12-03T04:43:16.138Z,6.20
2022-12-03T04:44:25.838Z,5.20
2022-12-03T04:45:17.306Z,5.30
2022-12-03T04:46:08.981Z,5.10
2022-12-03T04:47:00.630Z,5.70
2022-12-03T04:47:52.065Z,6.40
2022-12-03T04:48:43.248Z,6.50
2022-12-03T04:49:38.499Z,5.50
2022-12-03T04:50:29.987Z,4.80
2022-12-03T04:51:21.457Z,5.30
2022-12-03T04:52:13.837Z,5.70
2022-12-03T04:53:05.561Z,5.50
2022-12-03T04:53:56.881Z,5.00
2022-12-03T04:54:48.575Z,5.60
2022-12-03T04:55:40.069Z,4.90
2022-12-03T04:56:31.538Z,4.80
2022-12-03T04:57:23.191Z,5.00
2022-12-03T04:58:14.526Z,5.10
2022-12-03T04:59:05.568Z,4.30
2022-12-03T04:59:56.833Z,5.10
2022-12-03T05:00:48.039Z,5.30
2022-12-03T05:01:39.542Z,5.30
2022-12-03T05:02:30.826Z,4.40
2022-12-03T05:03:22.053Z,4.20
2022-12-03T05:04:13.573Z,4.50
2022-12-03T05:05:05.109Z,5.10
2022-12-03T05:06:47.983Z,4.60
2022-12-03T05:07:39.350Z,4.10
2022-12-03T05:08:30.767Z,4.40
2022-12-03T05:09:22.016Z,4.20
2022-12-03T05:10:13.246Z,4.20
2022-12-03T05:11:05.118Z,4.30
2022-12-03T05:11:56.999Z,3.90
2022-12-03T05:12:47.988Z,4.80
2022-12-03T05:13:39.362Z,4.80
2022-12-03T05:14:30.999Z,4.90
2022-12-03T05:15:22.259Z,5.50
2022-12-03T05:16:13.819Z,5.50
2022-12-03T05:17:05.149Z,4.70
2022-12-03T05:17:56.574Z,5.20
2022-12-03T05:18:48.352Z,5.10
2022-12-03T05:19:58.549Z,4.60
2022-12-03T05:20:53.303Z,4.80
2022-12-03T05:21:45.185Z,4.60
2022-12-03T05:22:36.667Z,4.90
2022-12-03T05:23:28.129Z,5.40
2022-12-03T05:24:19.490Z,5.40
2022-12-03T05:25:11.117Z,4.70
2022-12-03T05:26:02.399Z,5.20
2022-12-03T05:26:54.015Z,5.40
2022-12-03T05:27:45.397Z,5.20
2022-12-03T05:28:37.029Z,6.20
2022-12-03T05:29:28.316Z,5.90
2022-12-03T05:30:19.626Z,4.90
2022-12-03T05:31:11.253Z,6.50
2022-12-03T05:32:02.734Z,5.50
2022-12-03T05:32:54.423Z,5.30
2022-12-03T05:33:46.383Z,5.60
2022-12-03T05:34:38.054Z,6.90
2022-12-03T05:35:29.658Z,5.20
2022-12-03T05:36:20.927Z,6.10
2022-12-03T05:37:12.282Z,5.90
2022-12-03T05:38:03.677Z,4.80
2022-12-03T05:39:46.837Z,5.30
2022-12-03T05:40:38.313Z,6.20
2022-12-03T05:41:48.921Z,5.20
2022-12-03T05:42:57.026Z,5.30
2022-12-03T05:43:48.154Z,4.80
2022-12-03T05:44:39.524Z,6.20
2022-12-03T05:45:32.790Z,5.70
2022-12-03T05:46:24.368Z,5.10
2022-12-03T05:47:16.232Z,5.60
2022-12-03T05:48:09.134Z,6.20
2022-12-03T05:49:00.359Z,6.30
2022-12-03T05:49:51.937Z,5.40
2022-12-03T05:50:44.579Z,5.80
2022-12-03T05:51:38.940Z,5.20
2022-12-03T05:52:30.337Z,5.50
2022-12-03T05:53:21.859Z,6.30
2022-12-03T05:54:13.075Z,5.80
2022-12-03T05:55:04.843Z,5.40
2022-12-03T05:55:56.537Z,7.40
2022-12-03T05:56:47.817Z,5.70
2022-12-03T05:57:39.086Z,6.20
2022-12-03T05:58:30.530Z,6.50
2022-12-03T05:59:21.835Z,6.70
2022-12-03T06:00:14.706Z,5.40
2022-12-03T06:01:06.081Z,6.20
2022-12-03T06:01:57.353Z,6.50
2022-12-03T06:02:49.188Z,7.20
2022-12-03T06:03:40.899Z,6.40
2022-12-03T06:04:32.238Z,6.40
2022-12-03T06:05:24.039Z,5.50
2022-12-03T06:06:15.281Z,5.60
2022-12-03T06:07:09.731Z,5.10
2022-12-03T06:08:05.176Z,5.30
2022-12-03T06:08:56.463Z,6.10
2022-12-03T06:09:47.914Z,6.60
2022-12-03T06:10:39.413Z,5.70
2022-12-03T06:11:33.975Z,5.60
2022-12-03T06:12:25.358Z,6.70
2022-12-03T06:13:17.390Z,5.20
2022-12-03T06:15:00.222Z,5.90
2022-12-03T06:15:52.845Z,5.30
2022-12-03T06:16:44.288Z,5.50
2022-12-03T06:17:35.895Z,5.80
2022-12-03T06:18:27.266Z,7.10
2022-12-03T06:19:18.791Z,5.40
2022-12-03T06:20:14.387Z,6.10
2022-12-03T06:21:05.763Z,5.70
2022-12-03T06:21:57.016Z,5.00
2022-12-03T06:22:49.463Z,4.70
2022-12-03T06:23:44.807Z,6.80
2022-12-03T06:24:36.589Z,6.10
2022-12-03T06:25:28.417Z,5.30
2022-12-03T06:26:20.154Z,5.30
2022-12-03T06:28:03.056Z,4.90
2022-12-03T06:28:54.931Z,5.00
2022-12-03T06:29:46.642Z,6.00
2022-12-03T06:30:38.125Z,5.20
2022-12-03T06:31:29.963Z,4.90
2022-12-03T06:32:21.154Z,5.10
2022-12-03T06:33:12.858Z,4.70
2022-12-03T06:34:04.594Z,5.30
2022-12-03T06:35:47.887Z,6.30
2022-12-03T06:36:39.170Z,5.00
2022-12-03T06:37:30.573Z,5.50
2022-12-03T06:38:22.365Z,4.60
2022-12-03T06:39:13.659Z,5.70
2022-12-03T06:40:05.699Z,5.10
2022-12-03T06:40:57.228Z,4.70
2022-12-03T06:41:48.482Z,5.90
2022-12-03T06:42:40.131Z,4.80
2022-12-03T06:43:31.255Z,5.70
2022-12-03T06:44:22.803Z,5.80
2022-12-03T06:45:14.224Z,5.40
2022-12-03T06:46:05.834Z,6.30
2022-12-03T06:46:57.497Z,5.10
2022-12-03T06:47:49.032Z,5.50
2022-12-03T06:48:40.448Z,5.90
2022-12-03T06:49:32.007Z,6.40
2022-12-03T06:50:23.601Z,6.20
2022-12-03T06:51:14.827Z,6.30
2022-12-03T06:52:06.245Z,5.40
2022-12-03T06:53:49.617Z,5.00
2022-12-03T06:54:41.059Z,5.20
2022-12-03T06:55:32.646Z,5.80
2022-12-03T06:56:23.647Z,5.70
2022-12-03T06:57:16.256Z,5.50
2022-12-03T06:58:07.445Z,5.00
2022-12-03T06:58:59.556Z,5.60
2022-12-03T06:59:51.432Z,5.90
2022-12-03T07:01:34.340Z,6.00
2022-12-03T07:02:25.645Z,5.90
2022-12-03T07:03:17.394Z,5.50
2022-12-03T07:04:08.783Z,5.40
2022-12-03T07:05:00.073Z,6.50
2022-12-03T07:05:51.787Z,5.90
2022-12-03T07:06:43.690Z,5.50
2022-12-03T07:07:35.345Z,7.00
2022-12-03T07:08:27.283Z,6.30
2022-12-03T07:09:18.875Z,5.30
2022-12-03T07:10:10.331Z,6.30
2022-12-03T07:11:01.751Z,6.20
2022-12-03T07:11:53.061Z,6.30
2022-12-03T07:12:44.275Z,5.70
2022-12-03T07:13:35.750Z,6.70
2022-12-03T07:14:27.350Z,5.10
2022-12-03T07:15:19.001Z,5.90
2022-12-03T07:16:10.544Z,6.40
2022-12-03T07:17:01.772Z,7.40
2022-12-03T07:17:53.374Z,7.20
2022-12-03T07:18:44.971Z,5.90
2022-12-03T07:19:36.580Z,5.80
2022-12-03T07:20:28.272Z,6.90
2022-12-03T07:21:19.850Z,6.50
2022-12-03T07:22:11.457Z,6.40
2022-12-03T07:23:03.070Z,6.70
2022-12-03T07:23:54.328Z,7.60
2022-12-03T07:24:45.786Z,7.10
2022-12-03T07:25:37.231Z,6.20
2022-12-03T07:26:28.517Z,6.90
2022-12-03T07:27:20.137Z,7.50
2022-12-03T07:28:11.711Z,7.00
2022-12-03T07:29:54.932Z,5.80
2022-12-03T07:30:46.492Z,5.10
2022-12-03T07:31:37.861Z,6.10
2022-12-03T07:32:29.439Z,6.60
2022-12-03T07:33:20.827Z,6.20
2022-12-03T07:34:11.897Z,7.80
2022-12-03T07:35:58.740Z,5.90
2022-12-03T07:36:50.305Z,6.20
2022-12-03T07:37:41.508Z,6.20
2022-12-03T07:38:32.906Z,6.00
2022-12-03T07:39:24.219Z,6.80
2022-12-03T07:40:15.928Z,6.20
2022-12-03T07:41:59.803Z,5.80
2022-12-03T07:42:51.435Z,6.50
2022-12-03T07:43:43.707Z,7.00
2022-12-03T07:44:34.977Z,6.50
2022-12-03T07:45:26.320Z,5.20
2022-12-03T07:46:17.738Z,6.80
2022-12-03T07:47:09.249Z,6.50
2022-12-03T07:48:00.576Z,6.80
2022-12-03T07:48:52.246Z,6.50
2022-12-03T07:49:43.881Z,6.40
2022-12-03T07:50:35.146Z,6.00
2022-12-03T07:51:31.945Z,6.30
2022-12-03T07:52:23.590Z,7.30
2022-12-03T07:53:15.149Z,7.80
2022-12-03T07:54:06.491Z,7.10
2022-12-03T07:54:57.890Z,7.40
2022-12-03T07:55:49.174Z,7.50
2022-12-03T07:56:40.836Z,9.60
2022-12-03T07:57:32.527Z,6.40
2022-12-03T07:58:23.949Z,6.30
2022-12-03T07:59:16.634Z,7.10
2022-12-03T08:00:08.090Z,6.30
2022-12-03T08:00:59.958Z,6.40
2022-12-03T08:01:51.509Z,7.40
2022-12-03T08:02:43.115Z,5.90
2022-12-03T08:03:34.364Z,7.30
2022-12-03T08:04:26.061Z,6.60
2022-12-03T08:05:17.737Z,6.00
2022-12-03T08:06:09.557Z,6.50
2022-12-03T08:07:01.123Z,6.10
2022-12-03T08:07:52.569Z,6.30
2022-12-03T08:08:43.916Z,6.20
2022-12-03T08:09:35.224Z,6.00
2022-12-03T08:10:26.926Z,6.60
2022-12-03T08:11:18.343Z,6.20
2022-12-03T08:12:15.384Z,6.90
2022-12-03T08:13:10.595Z,9.70
2022-12-03T08:14:02.016Z,11.70
2022-12-03T08:14:53.538Z,8.60
2022-12-03T08:15:45.084Z,8.50
2022-12-03T08:16:37.795Z,6.50
2022-12-03T08:17:29.555Z,7.30
2022-12-03T08:18:21.331Z,6.40
2022-12-03T08:20:06.128Z,6.00
2022-12-03T08:20:57.418Z,6.40
2022-12-03T08:21:48.878Z,6.20
2022-12-03T08:22:41.043Z,6.80
2022-12-03T08:23:34.550Z,7.00
2022-12-03T08:24:25.976Z,5.80
2022-12-03T08:25:22.173Z,6.90
2022-12-03T08:26:16.490Z,6.20
2022-12-03T08:27:14.854Z,5.80
2022-12-03T08:28:57.570Z,6.30
2022-12-03T08:29:48.805Z,6.00
2022-12-03T08:30:40.643Z,6.40
2022-12-03T08:31:33.707Z,5.90
2022-12-03T08:32:25.274Z,6.90
2022-12-03T08:33:18.605Z,6.20
2022-12-03T08:34:20.326Z,5.90
2022-12-03T08:35:19.972Z,6.30
2022-12-03T08:36:16.939Z,6.70
2022-12-03T08:37:18.505Z,6.60
2022-12-03T08:38:11.891Z,5.70
2022-12-03T08:39:23.448Z,7.00
2022-12-03T08:40:35.364Z,6.20
2022-12-03T08:41:48.575Z,6.80
2022-12-03T08:42:43.220Z,6.30
2022-12-03T08:43:41.918Z,6.40
2022-12-03T08:44:38.538Z,6.00
2022-12-03T08:45:32.670Z,6.40
2022-12-03T08:46:24.366Z,7.10
2022-12-03T08:47:25.343Z,7.50
2022-12-03T08:48:22.882Z,7.30
2022-12-03T08:49:15.025Z,6.60
2022-12-03T08:50:22.143Z,7.60
2022-12-03T08:51:26.653Z,6.60
2022-12-03T08:52:22.712Z,6.30
2022-12-03T08:53:14.424Z,6.90
2022-12-03T08:54:13.060Z,7.60
2022-12-03T08:55:24.639Z,7.20
2022-12-03T08:56:24.099Z,5.80
2022-12-03T08:57:26.728Z,7.10
2022-12-03T08:58:27.558Z,6.80
2022-12-03T08:59:28.497Z,6.90
2022-12-03T09:00:22.281Z,6.10
2022-12-03T09:01:13.795Z,7.00
2022-12-03T09:02:15.090Z,7.40
2022-12-03T09:03:12.870Z,7.30
2022-12-03T09:04:23.041Z,8.00
2022-12-03T09:05:33.397Z,7.00
2022-12-03T09:06:24.838Z,6.60
2022-12-03T09:07:16.146Z,6.20
2022-12-03T09:08:07.984Z,7.90
2022-12-03T09:09:05.148Z,7.30
2022-12-03T09:09:58.246Z,6.90
2022-12-03T09:10:49.591Z,7.10
2022-12-03T09:11:43.129Z,7.30
2022-12-03T09:12:34.494Z,7.40
2022-12-03T09:13:25.829Z,8.10
2022-12-03T09:14:22.511Z,9.00
2022-12-03T09:15:14.032Z,7.20
2022-12-03T09:16:05.731Z,19.20
2022-12-03T09:17:49.001Z,7.40
2022-12-03T09:18:40.383Z,8.00
2022-12-03T09:19:31.730Z,7.00
2022-12-03T09:20:23.334Z,7.60
2022-12-03T09:21:14.698Z,7.00
2022-12-03T09:22:06.108Z,7.50
2022-12-03T09:22:57.762Z,8.10
2022-12-03T09:23:49.205Z,6.60
2022-12-03T09:24:40.643Z,7.50
2022-12-03T09:25:32.252Z,8.50
2022-12-03T09:26:23.795Z,8.10
2022-12-03T09:27:15.487Z,7.80
2022-12-03T09:28:07.154Z,8.40
2022-12-03T09:28:58.191Z,7.80
2022-12-03T09:29:49.858Z,8.00
2022-12-03T09:31:34.347Z,7.60
2022-12-03T09:32:25.915Z,7.10
2022-12-03T09:33:17.827Z,8.80
2022-12-03T09:34:09.306Z,8.30
2022-12-03T09:35:01.433Z,7.10
2022-12-03T09:36:44.397Z,5.30
2022-12-03T09:37:35.737Z,5.90
2022-12-03T09:38:27.016Z,7.80
2022-12-03T09:39:18.340Z,8.40
2022-12-03T09:40:10.314Z,10.10
2022-12-03T09:41:01.911Z,7.80
2022-12-03T09:41:54.495Z,8.70
2022-12-03T09:42:45.797Z,7.80
2022-12-03T09:44:02.791Z,8.50
2022-12-03T09:44:48.806Z,8.40
2022-12-03T09:45:40.285Z,8.00
2022-12-03T09:46:31.715Z,8.40
2022-12-03T09:48:15.987Z,8.00
2022-12-03T09:49:13.967Z,7.60
2022-12-03T09:50:07.517Z,7.00
2022-12-03T09:53:35.562Z,9.10
2022-12-03T09:54:29.880Z,7.40
2022-12-03T09:56:15.831Z,7.90
2022-12-03T09:57:10.603Z,6.70
2022-12-03T09:58:02.343Z,8.60
2022-12-03T09:58:54.597Z,8.30
2022-12-03T09:59:45.831Z,8.20
2022-12-03T10:00:37.826Z,7.90
2022-12-03T10:01:30.846Z,7.20
2022-12-03T10:02:25.141Z,7.90
2022-12-03T10:03:18.880Z,7.90
2022-12-03T10:04:10.689Z,7.70
2022-12-03T10:05:02.456Z,8.60
2022-12-03T10:05:54.990Z,8.30
2022-12-03T10:06:46.823Z,10.10
2022-12-03T10:07:38.643Z,7.10
2022-12-03T10:08:32.344Z,8.90
2022-12-03T10:09:25.606Z,7.80
2022-12-03T10:10:18.768Z,7.80
2022-12-03T10:11:10.349Z,8.60
2022-12-03T10:12:02.021Z,11.10
2022-12-03T10:12:53.382Z,14.10
2022-12-03T10:13:45.899Z,9.90
2022-12-03T10:14:37.325Z,7.90
2022-12-03T10:15:28.715Z,7.60
2022-12-03T10:16:21.299Z,8.50
2022-12-03T10:17:12.588Z,8.20
2022-12-03T10:18:15.909Z,7.80
2022-12-03T10:19:11.468Z,7.90
2022-12-03T10:20:02.773Z,7.60
2022-12-03T10:20:54.296Z,7.70
2022-12-03T10:21:45.703Z,6.50
2022-12-03T10:22:37.477Z,7.70
2022-12-03T10:24:22.244Z,7.10
2022-12-03T10:25:14.956Z,6.80
2022-12-03T10:26:06.460Z,7.40
2022-12-03T10:27:02.095Z,7.50
2022-12-03T10:27:58.760Z,7.10
2022-12-03T10:28:51.348Z,7.80
2022-12-03T10:29:53.102Z,7.10
2022-12-03T10:30:53.766Z,7.20
2022-12-03T10:31:45.879Z,8.00
2022-12-03T10:33:30.221Z,7.60
2022-12-03T10:34:24.060Z,8.80
2022-12-03T10:35:18.415Z,8.10
2022-12-03T10:36:19.213Z,6.10
2022-12-03T10:37:13.592Z,7.20
2022-12-03T10:38:06.312Z,7.50
2022-12-03T10:39:14.453Z,8.30
2022-12-03T10:40:09.056Z,7.90
2022-12-03T10:41:19.357Z,7.70
2022-12-03T10:42:16.078Z,7.60
2022-12-03T10:43:13.520Z,9.00
2022-12-03T10:44:21.152Z,8.30
2022-12-03T10:45:20.497Z,8.30
2022-12-03T10:46:13.272Z,8.00
2022-12-03T10:47:06.559Z,9.30
2022-12-03T10:48:02.557Z,8.40
2022-12-03T10:49:10.535Z,9.00
2022-12-03T10:50:04.001Z,8.20
2022-12-03T10:50:56.701Z,9.20
2022-12-03T10:51:48.374Z,8.30
2022-12-03T10:52:39.846Z,8.20
2022-12-03T10:53:32.724Z,8.10
2022-12-03T10:54:25.431Z,8.50
2022-12-03T10:55:17.228Z,8.10
2022-12-03T10:56:14.901Z,8.50
2022-12-03T10:57:06.344Z,8.50
2022-12-03T10:57:57.725Z,10.60
2022-12-03T10:58:49.055Z,9.40
2022-12-03T10:59:42.123Z,8.60
2022-12-03T11:00:34.235Z,9.20
2022-12-03T11:01:26.681Z,8.90
2022-12-03T11:02:21.118Z,9.70
2022-12-03T11:03:26.388Z,9.60
2022-12-03T11:04:22.478Z,7.50
2022-12-03T11:05:15.578Z,8.50
2022-12-03T11:06:06.737Z,9.10
2022-12-03T11:06:58.318Z,9.00
2022-12-03T11:07:50.073Z,9.60
2022-12-03T11:08:43.024Z,9.20
2022-12-03T11:09:35.094Z,9.50
2022-12-03T11:10:26.587Z,10.40
2022-12-03T11:11:20.020Z,9.60
2022-12-03T11:12:19.553Z,8.70
2022-12-03T11:13:27.677Z,10.50
2022-12-03T11:14:38.045Z,9.70
2022-12-03T11:15:43.952Z,9.10
2022-12-03T11:16:41.342Z,8.00
2022-12-03T11:17:45.104Z,9.40
2022-12-03T11:18:36.826Z,10.60
2022-12-03T11:20:22.900Z,10.10
2022-12-03T11:21:14.801Z,9.00
2022-12-03T11:22:06.332Z,8.60
2022-12-03T11:22:58.250Z,10.80
2022-12-03T11:23:49.802Z,8.50
2022-12-03T11:24:41.418Z,9.70
2022-12-03T11:25:37.142Z,8.80
2022-12-03T11:26:28.770Z,8.80
2022-12-03T11:27:20.858Z,9.70
2022-12-03T11:28:15.165Z,9.20
2022-12-03T11:29:13.953Z,9.20
2022-12-03T11:30:08.841Z,9.00
2022-12-03T11:31:02.511Z,9.10
2022-12-03T11:31:53.575Z,12.30
2022-12-03T11:32:45.083Z,9.70
2022-12-03T11:33:38.235Z,9.30
2022-12-03T11:34:31.367Z,8.30
2022-12-03T11:35:24.615Z,9.50
2022-12-03T11:36:16.165Z,9.10
2022-12-03T11:37:10.310Z,10.40
2022-12-03T11:38:20.722Z,8.30
2022-12-03T11:39:12.386Z,9.00
2022-12-03T11:40:24.796Z,9.20
2022-12-03T11:41:18.018Z,8.40
2022-12-03T11:42:31.259Z,8.50
2022-12-03T11:43:42.685Z,9.40
2022-12-03T11:44:34.303Z,9.10
2022-12-03T11:45:30.343Z,9.70
2022-12-03T11:46:23.872Z,8.80
2022-12-03T11:47:16.081Z,9.00
2022-12-03T11:48:12.720Z,9.80
2022-12-03T11:49:18.889Z,9.50
2022-12-03T11:50:39.386Z,8.80
2022-12-03T11:51:31.498Z,8.10
2022-12-03T11:52:25.078Z,11.10
2022-12-03T11:53:16.678Z,8.10
2022-12-03T11:54:14.360Z,10.00
2022-12-03T11:55:24.405Z,10.10
2022-12-03T11:56:20.205Z,9.90
2022-12-03T11:57:24.798Z,9.50
2022-12-03T12:00:00.217Z,7.30
2022-12-03T12:00:52.408Z,9.10
2022-12-03T12:01:44.281Z,8.70
2022-12-03T12:02:37.779Z,11.10
2022-12-03T12:03:33.703Z,10.10
2022-12-03T12:04:46.509Z,8.90
2022-12-03T12:05:38.229Z,10.70
2022-12-03T12:06:39.291Z,10.30
2022-12-03T12:07:34.638Z,10.40
2022-12-03T12:08:25.917Z,9.30
2022-12-03T12:09:37.229Z,9.30
2022-12-03T12:10:44.825Z,16.30
2022-12-03T12:11:37.470Z,12.60
2022-12-03T12:12:28.986Z,10.70
2022-12-03T12:13:35.866Z,9.80
2022-12-03T12:14:27.842Z,10.00
2022-12-03T12:15:38.236Z,9.90
2022-12-03T12:16:37.077Z,9.10
2022-12-03T12:17:35.783Z,9.70
2022-12-03T12:18:36.223Z,8.80
2022-12-03T12:19:32.951Z,10.40
2022-12-03T12:20:27.786Z,8.70
2022-12-03T12:21:38.213Z,8.10
2022-12-03T12:22:30.616Z,8.10
2022-12-03T12:23:25.314Z,7.80
2022-12-03T12:24:30.355Z,7.90
2022-12-03T12:25:38.995Z,7.80
2022-12-03T12:26:30.214Z,7.90
2022-12-03T12:27:23.337Z,7.70